sensor_id;sensor_type;location;lat;lon;timestamp;temperature;humidity
7576;DHT22;3829;50.798;4.358;2023-05-29T00:00:14;15.00;99.90
7576;DHT22;3829;50.798;4.358;2023-05-29T00:02:41;14.90;99.90
7576;DHT22;3829;50.798;4.358;2023-05-29T00:05:10;14.90;99.90
7576;DHT22;3829;50.798;4.358;2023-05-29T00:07:37;14.80;99.90
7576;DHT22;3829;50.798;4.358;2023-05-29T00:10:04;14.80;99.90
7576;DHT22;3829;50.798;4.358;2023-05-29T00:12:30;14.80;99.90
7576;DHT22;3829;50.798;4.358;2023-05-29T00:14:55;14.80;99.90
7576;DHT22;3829;50.798;4.358;2023-05-29T00:17:21;14.70;99.90
7576;DHT22;3829;50.798;4.358;2023-05-29T00:19:46;14.70;99.90
7576;DHT22;3829;50.798;4.358;2023-05-29T00:22:12;14.60;99.90
7576;DHT22;3829;50.798;4.358;2023-05-29T00:24:38;14.60;99.90
7576;DHT22;3829;50.798;4.358;2023-05-29T00:27:03;14.60;99.90
7576;DHT22;3829;50.798;4.358;2023-05-29T00:29:29;14.50;99.90
7576;DHT22;3829;50.798;4.358;2023-05-29T00:31:56;14.50;99.90
7576;DHT22;3829;50.798;4.358;2023-05-29T00:34:23;14.50;99.90
7576;DHT22;3829;50.798;4.358;2023-05-29T00:36:49;14.50;99.90
7576;DHT22;3829;50.798;4.358;2023-05-29T00:39:14;14.50;99.90
7576;DHT22;3829;50.798;4.358;2023-05-29T00:41:40;14.40;99.90
7576;DHT22;3829;50.798;4.358;2023-05-29T00:44:06;14.30;99.90
7576;DHT22;3829;50.798;4.358;2023-05-29T00:46:33;14.30;99.90
7576;DHT22;3829;50.798;4.358;2023-05-29T00:48:59;14.30;99.90
7576;DHT22;3829;50.798;4.358;2023-05-29T00:51:26;14.20;99.90
7576;DHT22;3829;50.798;4.358;2023-05-29T00:53:53;14.20;99.90
7576;DHT22;3829;50.798;4.358;2023-05-29T00:56:19;14.10;99.90
7576;DHT22;3829;50.798;4.358;2023-05-29T00:58:48;13.90;99.90
7576;DHT22;3829;50.798;4.358;2023-05-29T01:01:15;14.00;99.90
7576;DHT22;3829;50.798;4.358;2023-05-29T01:03:41;13.90;99.90
7576;DHT22;3829;50.798;4.358;2023-05-29T01:06:07;13.90;99.90
7576;DHT22;3829;50.798;4.358;2023-05-29T01:08:33;13.80;99.90
7576;DHT22;3829;50.798;4.358;2023-05-29T01:11:05;13.80;99.90
7576;DHT22;3829;50.798;4.358;2023-05-29T01:13:35;13.70;99.90
7576;DHT22;3829;50.798;4.358;2023-05-29T01:16:09;13.60;99.90
7576;DHT22;3829;50.798;4.358;2023-05-29T01:19:08;13.60;99.90
7576;DHT22;3829;50.798;4.358;2023-05-29T01:24:37;13.60;99.90
7576;DHT22;3829;50.798;4.358;2023-05-29T01:27:05;13.40;99.90
7576;DHT22;3829;50.798;4.358;2023-05-29T01:29:34;13.40;99.90
7576;DHT22;3829;50.798;4.358;2023-05-29T01:32:01;13.30;99.90
7576;DHT22;3829;50.798;4.358;2023-05-29T01:34:28;13.30;99.90
7576;DHT22;3829;50.798;4.358;2023-05-29T01:36:54;13.20;99.90
7576;DHT22;3829;50.798;4.358;2023-05-29T01:39:20;13.20;99.90
7576;DHT22;3829;50.798;4.358;2023-05-29T01:41:47;13.20;99.90
7576;DHT22;3829;50.798;4.358;2023-05-29T01:44:13;13.10;99.90
7576;DHT22;3829;50.798;4.358;2023-05-29T01:46:41;13.10;99.90
7576;DHT22;3829;50.798;4.358;2023-05-29T01:49:08;13.10;99.90
7576;DHT22;3829;50.798;4.358;2023-05-29T01:51:34;13.10;99.90
7576;DHT22;3829;50.798;4.358;2023-05-29T01:54:01;13.10;99.90
7576;DHT22;3829;50.798;4.358;2023-05-29T01:56:27;13.10;99.90
7576;DHT22;3829;50.798;4.358;2023-05-29T01:58:55;13.00;99.90
7576;DHT22;3829;50.798;4.358;2023-05-29T02:01:22;13.00;99.90
7576;DHT22;3829;50.798;4.358;2023-05-29T02:03:47;13.00;99.90
7576;DHT22;3829;50.798;4.358;2023-05-29T02:06:13;13.00;99.90
7576;DHT22;3829;50.798;4.358;2023-05-29T02:08:39;13.00;99.90
7576;DHT22;3829;50.798;4.358;2023-05-29T02:11:04;13.00;99.90
7576;DHT22;3829;50.798;4.358;2023-05-29T02:13:31;13.00;99.90
7576;DHT22;3829;50.798;4.358;2023-05-29T02:15:56;12.90;99.90
7576;DHT22;3829;50.798;4.358;2023-05-29T02:18:22;12.90;99.90
7576;DHT22;3829;50.798;4.358;2023-05-29T02:20:47;12.80;99.90
7576;DHT22;3829;50.798;4.358;2023-05-29T02:23:13;12.80;99.90
7576;DHT22;3829;50.798;4.358;2023-05-29T02:25:40;12.80;99.90
7576;DHT22;3829;50.798;4.358;2023-05-29T02:28:06;12.80;99.90
7576;DHT22;3829;50.798;4.358;2023-05-29T02:30:31;12.80;99.90
7576;DHT22;3829;50.798;4.358;2023-05-29T02:32:57;12.70;99.90
7576;DHT22;3829;50.798;4.358;2023-05-29T02:35:23;12.70;99.90
7576;DHT22;3829;50.798;4.358;2023-05-29T02:37:49;12.70;99.90
7576;DHT22;3829;50.798;4.358;2023-05-29T02:40:16;12.70;99.90
7576;DHT22;3829;50.798;4.358;2023-05-29T02:42:41;12.80;99.90
7576;DHT22;3829;50.798;4.358;2023-05-29T02:45:07;12.70;99.90
7576;DHT22;3829;50.798;4.358;2023-05-29T02:47:33;12.60;99.90
7576;DHT22;3829;50.798;4.358;2023-05-29T02:49:59;12.60;99.90
7576;DHT22;3829;50.798;4.358;2023-05-29T02:52:24;12.60;99.90
7576;DHT22;3829;50.798;4.358;2023-05-29T02:54:50;12.60;99.90
7576;DHT22;3829;50.798;4.358;2023-05-29T02:57:15;12.50;99.90
7576;DHT22;3829;50.798;4.358;2023-05-29T02:59:41;12.50;99.90
7576;DHT22;3829;50.798;4.358;2023-05-29T03:02:09;12.50;99.90
7576;DHT22;3829;50.798;4.358;2023-05-29T03:04:35;12.40;99.90
7576;DHT22;3829;50.798;4.358;2023-05-29T03:07:00;12.30;99.90
7576;DHT22;3829;50.798;4.358;2023-05-29T03:09:26;12.30;99.90
7576;DHT22;3829;50.798;4.358;2023-05-29T03:11:51;12.20;99.90
7576;DHT22;3829;50.798;4.358;2023-05-29T03:14:17;12.20;99.90
7576;DHT22;3829;50.798;4.358;2023-05-29T03:16:44;12.20;99.90
7576;DHT22;3829;50.798;4.358;2023-05-29T03:19:10;12.20;99.90
7576;DHT22;3829;50.798;4.358;2023-05-29T03:21:36;12.10;99.90
7576;DHT22;3829;50.798;4.358;2023-05-29T03:24:02;12.00;99.90
7576;DHT22;3829;50.798;4.358;2023-05-29T03:26:29;12.00;99.90
7576;DHT22;3829;50.798;4.358;2023-05-29T03:28:54;11.90;99.90
7576;DHT22;3829;50.798;4.358;2023-05-29T03:31:20;11.90;99.90
7576;DHT22;3829;50.798;4.358;2023-05-29T03:33:47;11.80;99.90
7576;DHT22;3829;50.798;4.358;2023-05-29T03:36:13;11.80;99.90
7576;DHT22;3829;50.798;4.358;2023-05-29T03:38:38;11.80;99.90
7576;DHT22;3829;50.798;4.358;2023-05-29T03:41:05;11.80;99.90
7576;DHT22;3829;50.798;4.358;2023-05-29T03:43:30;11.80;99.90
7576;DHT22;3829;50.798;4.358;2023-05-29T03:45:56;11.80;99.90
7576;DHT22;3829;50.798;4.358;2023-05-29T03:48:21;11.70;99.90
7576;DHT22;3829;50.798;4.358;2023-05-29T03:50:47;11.70;99.90
7576;DHT22;3829;50.798;4.358;2023-05-29T03:53:12;11.70;99.90
7576;DHT22;3829;50.798;4.358;2023-05-29T03:55:38;11.60;99.90
7576;DHT22;3829;50.798;4.358;2023-05-29T03:58:04;11.60;99.90
7576;DHT22;3829;50.798;4.358;2023-05-29T04:00:29;11.60;99.90
7576;DHT22;3829;50.798;4.358;2023-05-29T04:02:55;11.60;99.90
7576;DHT22;3829;50.798;4.358;2023-05-29T04:05:21;11.60;99.90
7576;DHT22;3829;50.798;4.358;2023-05-29T04:07:47;11.50;99.90
7576;DHT22;3829;50.798;4.358;2023-05-29T04:10:13;11.40;99.90
7576;DHT22;3829;50.798;4.358;2023-05-29T04:12:38;11.40;99.90
7576;DHT22;3829;50.798;4.358;2023-05-29T04:15:05;11.50;99.90
7576;DHT22;3829;50.798;4.358;2023-05-29T04:17:31;11.50;99.90
7576;DHT22;3829;50.798;4.358;2023-05-29T04:19:56;11.50;99.90
7576;DHT22;3829;50.798;4.358;2023-05-29T04:22:22;11.40;99.90
7576;DHT22;3829;50.798;4.358;2023-05-29T04:24:47;11.50;99.90
7576;DHT22;3829;50.798;4.358;2023-05-29T04:27:13;11.50;99.90
7576;DHT22;3829;50.798;4.358;2023-05-29T04:29:40;11.50;99.90
7576;DHT22;3829;50.798;4.358;2023-05-29T04:32:08;11.60;99.90
7576;DHT22;3829;50.798;4.358;2023-05-29T04:34:37;11.60;99.90
7576;DHT22;3829;50.798;4.358;2023-05-29T04:37:04;11.60;99.90
7576;DHT22;3829;50.798;4.358;2023-05-29T04:39:31;11.60;99.90
7576;DHT22;3829;50.798;4.358;2023-05-29T04:41:57;11.60;99.90
7576;DHT22;3829;50.798;4.358;2023-05-29T04:44:26;11.50;99.90
7576;DHT22;3829;50.798;4.358;2023-05-29T04:46:52;11.50;99.90
7576;DHT22;3829;50.798;4.358;2023-05-29T04:49:18;11.50;99.90
7576;DHT22;3829;50.798;4.358;2023-05-29T04:51:44;11.50;99.90
7576;DHT22;3829;50.798;4.358;2023-05-29T04:54:11;11.60;99.90
7576;DHT22;3829;50.798;4.358;2023-05-29T04:56:37;11.60;99.90
7576;DHT22;3829;50.798;4.358;2023-05-29T04:59:06;11.60;99.90
7576;DHT22;3829;50.798;4.358;2023-05-29T05:01:32;11.50;99.90
7576;DHT22;3829;50.798;4.358;2023-05-29T05:03:59;11.60;99.90
7576;DHT22;3829;50.798;4.358;2023-05-29T05:06:25;11.60;99.90
7576;DHT22;3829;50.798;4.358;2023-05-29T05:08:51;11.60;99.90
7576;DHT22;3829;50.798;4.358;2023-05-29T05:11:18;11.60;99.90
7576;DHT22;3829;50.798;4.358;2023-05-29T05:13:44;11.70;99.90
7576;DHT22;3829;50.798;4.358;2023-05-29T05:16:10;11.60;99.90
7576;DHT22;3829;50.798;4.358;2023-05-29T05:18:36;11.60;99.90
7576;DHT22;3829;50.798;4.358;2023-05-29T05:21:02;11.60;99.90
7576;DHT22;3829;50.798;4.358;2023-05-29T05:23:30;11.60;99.90
7576;DHT22;3829;50.798;4.358;2023-05-29T05:25:55;11.70;99.90
7576;DHT22;3829;50.798;4.358;2023-05-29T05:28:21;11.70;99.90
7576;DHT22;3829;50.798;4.358;2023-05-29T05:30:47;11.70;99.90
7576;DHT22;3829;50.798;4.358;2023-05-29T05:33:13;11.70;99.90
7576;DHT22;3829;50.798;4.358;2023-05-29T05:35:38;11.80;99.90
7576;DHT22;3829;50.798;4.358;2023-05-29T05:38:04;11.80;99.90
7576;DHT22;3829;50.798;4.358;2023-05-29T05:40:30;11.90;99.90
7576;DHT22;3829;50.798;4.358;2023-05-29T05:42:55;12.00;99.90
7576;DHT22;3829;50.798;4.358;2023-05-29T05:45:21;11.90;99.90
7576;DHT22;3829;50.798;4.358;2023-05-29T05:47:47;12.00;99.90
7576;DHT22;3829;50.798;4.358;2023-05-29T05:50:14;12.10;99.90
7576;DHT22;3829;50.798;4.358;2023-05-29T05:52:39;12.00;99.90
7576;DHT22;3829;50.798;4.358;2023-05-29T05:55:05;12.10;99.90
7576;DHT22;3829;50.798;4.358;2023-05-29T05:57:31;12.20;99.90
7576;DHT22;3829;50.798;4.358;2023-05-29T05:59:59;12.20;99.90
7576;DHT22;3829;50.798;4.358;2023-05-29T06:02:25;12.30;99.90
7576;DHT22;3829;50.798;4.358;2023-05-29T06:04:51;12.20;99.90
7576;DHT22;3829;50.798;4.358;2023-05-29T06:07:17;12.20;99.90
7576;DHT22;3829;50.798;4.358;2023-05-29T06:09:43;12.20;99.90
7576;DHT22;3829;50.798;4.358;2023-05-29T06:12:09;12.30;99.90
7576;DHT22;3829;50.798;4.358;2023-05-29T06:14:34;12.40;99.90
7576;DHT22;3829;50.798;4.358;2023-05-29T06:17:00;12.50;99.90
7576;DHT22;3829;50.798;4.358;2023-05-29T06:19:26;12.50;99.90
7576;DHT22;3829;50.798;4.358;2023-05-29T06:21:52;12.50;99.90
7576;DHT22;3829;50.798;4.358;2023-05-29T06:24:18;12.50;99.90
7576;DHT22;3829;50.798;4.358;2023-05-29T06:26:44;12.60;99.90
7576;DHT22;3829;50.798;4.358;2023-05-29T06:29:09;12.80;99.90
7576;DHT22;3829;50.798;4.358;2023-05-29T06:31:35;12.70;99.90
7576;DHT22;3829;50.798;4.358;2023-05-29T06:34:01;12.80;99.90
7576;DHT22;3829;50.798;4.358;2023-05-29T06:36:26;12.80;99.90
7576;DHT22;3829;50.798;4.358;2023-05-29T06:38:52;13.00;99.90
7576;DHT22;3829;50.798;4.358;2023-05-29T06:41:18;13.10;99.90
7576;DHT22;3829;50.798;4.358;2023-05-29T06:43:43;13.20;99.90
7576;DHT22;3829;50.798;4.358;2023-05-29T06:46:10;13.20;99.90
7576;DHT22;3829;50.798;4.358;2023-05-29T06:48:35;13.30;99.90
7576;DHT22;3829;50.798;4.358;2023-05-29T06:51:02;13.30;99.90
7576;DHT22;3829;50.798;4.358;2023-05-29T06:53:35;13.40;99.90
7576;DHT22;3829;50.798;4.358;2023-05-29T06:56:01;13.40;99.90
7576;DHT22;3829;50.798;4.358;2023-05-29T06:58:29;13.50;99.90
7576;DHT22;3829;50.798;4.358;2023-05-29T07:00:55;13.50;99.90
7576;DHT22;3829;50.798;4.358;2023-05-29T07:03:20;13.40;99.90
7576;DHT22;3829;50.798;4.358;2023-05-29T07:05:46;13.50;99.90
7576;DHT22;3829;50.798;4.358;2023-05-29T07:08:12;13.50;99.90
7576;DHT22;3829;50.798;4.358;2023-05-29T07:10:37;13.50;99.90
7576;DHT22;3829;50.798;4.358;2023-05-29T07:13:03;13.60;99.90
7576;DHT22;3829;50.798;4.358;2023-05-29T07:15:28;13.70;99.90
7576;DHT22;3829;50.798;4.358;2023-05-29T07:17:54;13.80;99.90
7576;DHT22;3829;50.798;4.358;2023-05-29T07:20:20;13.90;99.90
7576;DHT22;3829;50.798;4.358;2023-05-29T07:22:46;13.90;99.90
7576;DHT22;3829;50.798;4.358;2023-05-29T07:25:12;13.90;99.90
7576;DHT22;3829;50.798;4.358;2023-05-29T07:27:37;13.90;99.90
7576;DHT22;3829;50.798;4.358;2023-05-29T07:30:03;14.00;99.90
7576;DHT22;3829;50.798;4.358;2023-05-29T07:32:31;14.00;99.90
7576;DHT22;3829;50.798;4.358;2023-05-29T07:34:56;14.20;99.90
7576;DHT22;3829;50.798;4.358;2023-05-29T07:37:22;14.30;99.90
7576;DHT22;3829;50.798;4.358;2023-05-29T07:39:47;14.50;99.90
7576;DHT22;3829;50.798;4.358;2023-05-29T07:42:13;14.70;99.90
7576;DHT22;3829;50.798;4.358;2023-05-29T07:44:38;14.80;99.90
7576;DHT22;3829;50.798;4.358;2023-05-29T07:47:07;14.80;99.90
7576;DHT22;3829;50.798;4.358;2023-05-29T07:49:32;14.90;99.90
7576;DHT22;3829;50.798;4.358;2023-05-29T07:51:58;14.90;99.90
7576;DHT22;3829;50.798;4.358;2023-05-29T07:54:23;15.10;99.90
7576;DHT22;3829;50.798;4.358;2023-05-29T07:56:49;15.40;99.90
7576;DHT22;3829;50.798;4.358;2023-05-29T07:59:15;15.50;99.90
7576;DHT22;3829;50.798;4.358;2023-05-29T08:01:42;15.50;99.90
7576;DHT22;3829;50.798;4.358;2023-05-29T08:04:09;15.50;99.90
7576;DHT22;3829;50.798;4.358;2023-05-29T08:06:34;15.40;99.90
7576;DHT22;3829;50.798;4.358;2023-05-29T08:09:02;15.40;99.90
7576;DHT22;3829;50.798;4.358;2023-05-29T08:11:28;15.60;99.90
7576;DHT22;3829;50.798;4.358;2023-05-29T08:13:54;15.70;99.90
7576;DHT22;3829;50.798;4.358;2023-05-29T08:16:19;15.70;99.90
7576;DHT22;3829;50.798;4.358;2023-05-29T08:18:45;15.80;99.90
7576;DHT22;3829;50.798;4.358;2023-05-29T08:21:11;16.00;99.90
7576;DHT22;3829;50.798;4.358;2023-05-29T08:23:38;15.90;99.90
7576;DHT22;3829;50.798;4.358;2023-05-29T08:26:04;15.80;99.90
7576;DHT22;3829;50.798;4.358;2023-05-29T08:28:29;15.90;99.90
7576;DHT22;3829;50.798;4.358;2023-05-29T08:30:55;16.00;99.90
7576;DHT22;3829;50.798;4.358;2023-05-29T08:33:21;16.30;99.90
7576;DHT22;3829;50.798;4.358;2023-05-29T08:35:46;16.20;99.90
7576;DHT22;3829;50.798;4.358;2023-05-29T08:38:12;16.20;99.90
7576;DHT22;3829;50.798;4.358;2023-05-29T08:40:38;16.20;99.90
7576;DHT22;3829;50.798;4.358;2023-05-29T08:43:15;16.30;99.90
7576;DHT22;3829;50.798;4.358;2023-05-29T08:45:43;16.50;99.90
7576;DHT22;3829;50.798;4.358;2023-05-29T08:48:10;16.70;99.90
7576;DHT22;3829;50.798;4.358;2023-05-29T08:50:42;16.60;99.90
7576;DHT22;3829;50.798;4.358;2023-05-29T08:53:09;16.90;99.90
7576;DHT22;3829;50.798;4.358;2023-05-29T08:55:35;17.00;99.90
7576;DHT22;3829;50.798;4.358;2023-05-29T08:58:01;17.30;99.90
7576;DHT22;3829;50.798;4.358;2023-05-29T09:00:27;17.20;99.90
7576;DHT22;3829;50.798;4.358;2023-05-29T09:02:54;17.30;99.90
7576;DHT22;3829;50.798;4.358;2023-05-29T09:05:21;17.40;99.90
7576;DHT22;3829;50.798;4.358;2023-05-29T09:07:47;17.40;99.90
7576;DHT22;3829;50.798;4.358;2023-05-29T09:10:15;17.50;99.90
7576;DHT22;3829;50.798;4.358;2023-05-29T09:12:41;17.60;99.90
7576;DHT22;3829;50.798;4.358;2023-05-29T09:15:20;17.50;99.90
7576;DHT22;3829;50.798;4.358;2023-05-29T09:17:57;17.50;99.90
7576;DHT22;3829;50.798;4.358;2023-05-29T09:20:24;17.40;99.90
7576;DHT22;3829;50.798;4.358;2023-05-29T09:23:00;17.60;99.90
7576;DHT22;3829;50.798;4.358;2023-05-29T09:25:28;17.50;99.90
7576;DHT22;3829;50.798;4.358;2023-05-29T09:28:04;17.70;99.90
7576;DHT22;3829;50.798;4.358;2023-05-29T09:30:33;17.70;99.90
7576;DHT22;3829;50.798;4.358;2023-05-29T09:33:00;17.90;99.90
7576;DHT22;3829;50.798;4.358;2023-05-29T09:35:34;17.80;99.90
7576;DHT22;3829;50.798;4.358;2023-05-29T09:38:00;17.80;99.90
7576;DHT22;3829;50.798;4.358;2023-05-29T09:40:29;17.80;99.90
7576;DHT22;3829;50.798;4.358;2023-05-29T09:42:55;17.80;99.90
7576;DHT22;3829;50.798;4.358;2023-05-29T09:45:21;18.00;99.90
7576;DHT22;3829;50.798;4.358;2023-05-29T09:47:47;18.20;99.90
7576;DHT22;3829;50.798;4.358;2023-05-29T09:50:19;18.20;99.90
7576;DHT22;3829;50.798;4.358;2023-05-29T09:52:48;18.00;99.90
7576;DHT22;3829;50.798;4.358;2023-05-29T09:55:18;18.10;99.90
7576;DHT22;3829;50.798;4.358;2023-05-29T09:57:46;18.20;99.90
7576;DHT22;3829;50.798;4.358;2023-05-29T10:00:13;18.20;99.90
7576;DHT22;3829;50.798;4.358;2023-05-29T10:02:39;18.30;99.90
7576;DHT22;3829;50.798;4.358;2023-05-29T10:05:06;18.40;99.90
7576;DHT22;3829;50.798;4.358;2023-05-29T10:07:35;18.30;99.90
7576;DHT22;3829;50.798;4.358;2023-05-29T10:10:03;18.40;99.90
7576;DHT22;3829;50.798;4.358;2023-05-29T10:12:32;18.60;99.90
7576;DHT22;3829;50.798;4.358;2023-05-29T10:15:01;18.40;99.90
7576;DHT22;3829;50.798;4.358;2023-05-29T10:17:32;18.40;99.90
7576;DHT22;3829;50.798;4.358;2023-05-29T10:20:01;18.40;99.90
7576;DHT22;3829;50.798;4.358;2023-05-29T10:22:27;18.30;99.90
7576;DHT22;3829;50.798;4.358;2023-05-29T10:24:53;18.30;99.90
7576;DHT22;3829;50.798;4.358;2023-05-29T10:27:21;18.40;99.90
7576;DHT22;3829;50.798;4.358;2023-05-29T10:29:56;18.40;99.90
7576;DHT22;3829;50.798;4.358;2023-05-29T10:32:32;18.50;99.90
7576;DHT22;3829;50.798;4.358;2023-05-29T10:35:14;18.40;99.90
7576;DHT22;3829;50.798;4.358;2023-05-29T10:37:46;18.60;99.90
7576;DHT22;3829;50.798;4.358;2023-05-29T10:40:13;18.70;99.90
7576;DHT22;3829;50.798;4.358;2023-05-29T10:42:42;18.70;99.90
7576;DHT22;3829;50.798;4.358;2023-05-29T10:45:08;18.80;99.90
7576;DHT22;3829;50.798;4.358;2023-05-29T10:47:35;19.10;99.90
7576;DHT22;3829;50.798;4.358;2023-05-29T10:50:01;19.00;99.90
7576;DHT22;3829;50.798;4.358;2023-05-29T10:52:32;19.10;99.90
7576;DHT22;3829;50.798;4.358;2023-05-29T10:54:57;19.00;99.90
7576;DHT22;3829;50.798;4.358;2023-05-29T10:57:24;19.10;99.90
7576;DHT22;3829;50.798;4.358;2023-05-29T10:59:58;19.30;99.90
7576;DHT22;3829;50.798;4.358;2023-05-29T11:02:25;19.50;99.90
7576;DHT22;3829;50.798;4.358;2023-05-29T11:05:19;19.50;99.90
7576;DHT22;3829;50.798;4.358;2023-05-29T11:07:55;19.60;99.90
7576;DHT22;3829;50.798;4.358;2023-05-29T11:13:06;19.90;99.90
7576;DHT22;3829;50.798;4.358;2023-05-29T11:15:33;19.80;99.90
7576;DHT22;3829;50.798;4.358;2023-05-29T11:18:06;20.00;99.90
7576;DHT22;3829;50.798;4.358;2023-05-29T11:20:37;20.00;99.90
7576;DHT22;3829;50.798;4.358;2023-05-29T11:23:07;20.30;99.90
7576;DHT22;3829;50.798;4.358;2023-05-29T11:25:35;20.10;99.90
7576;DHT22;3829;50.798;4.358;2023-05-29T11:28:03;20.10;99.90
7576;DHT22;3829;50.798;4.358;2023-05-29T11:30:41;20.00;99.90
7576;DHT22;3829;50.798;4.358;2023-05-29T11:33:08;20.20;99.90
7576;DHT22;3829;50.798;4.358;2023-05-29T11:35:37;20.10;99.90
7576;DHT22;3829;50.798;4.358;2023-05-29T11:38:03;20.00;99.90
7576;DHT22;3829;50.798;4.358;2023-05-29T11:40:29;20.00;99.90
7576;DHT22;3829;50.798;4.358;2023-05-29T11:43:00;20.20;99.90
7576;DHT22;3829;50.798;4.358;2023-05-29T11:45:25;20.40;99.90
7576;DHT22;3829;50.798;4.358;2023-05-29T11:47:53;20.40;99.90
7576;DHT22;3829;50.798;4.358;2023-05-29T11:50:22;20.50;99.90
7576;DHT22;3829;50.798;4.358;2023-05-29T11:52:48;20.60;99.90
7576;DHT22;3829;50.798;4.358;2023-05-29T11:55:14;20.80;99.90
7576;DHT22;3829;50.798;4.358;2023-05-29T11:57:39;20.70;99.90
7576;DHT22;3829;50.798;4.358;2023-05-29T12:00:07;20.50;99.90
7576;DHT22;3829;50.798;4.358;2023-05-29T12:02:36;20.70;99.90
7576;DHT22;3829;50.798;4.358;2023-05-29T12:05:02;20.70;99.90
7576;DHT22;3829;50.798;4.358;2023-05-29T12:07:28;20.70;99.90
7576;DHT22;3829;50.798;4.358;2023-05-29T12:09:54;20.50;99.90
7576;DHT22;3829;50.798;4.358;2023-05-29T12:12:23;20.70;99.90
7576;DHT22;3829;50.798;4.358;2023-05-29T12:14:50;20.90;99.90
7576;DHT22;3829;50.798;4.358;2023-05-29T12:17:16;20.90;99.90
7576;DHT22;3829;50.798;4.358;2023-05-29T12:19:42;21.00;99.90
7576;DHT22;3829;50.798;4.358;2023-05-29T12:22:08;21.00;99.90
7576;DHT22;3829;50.798;4.358;2023-05-29T12:24:35;21.00;99.90
7576;DHT22;3829;50.798;4.358;2023-05-29T12:27:04;21.20;99.90
7576;DHT22;3829;50.798;4.358;2023-05-29T12:29:30;21.30;99.90
7576;DHT22;3829;50.798;4.358;2023-05-29T12:31:58;21.40;99.90
7576;DHT22;3829;50.798;4.358;2023-05-29T12:34:24;21.30;99.90
7576;DHT22;3829;50.798;4.358;2023-05-29T12:36:49;21.30;99.90
7576;DHT22;3829;50.798;4.358;2023-05-29T12:39:15;21.60;99.90
7576;DHT22;3829;50.798;4.358;2023-05-29T12:41:41;21.70;99.90
7576;DHT22;3829;50.798;4.358;2023-05-29T12:44:07;21.70;99.90
7576;DHT22;3829;50.798;4.358;2023-05-29T12:46:37;21.90;99.90
7576;DHT22;3829;50.798;4.358;2023-05-29T12:49:14;21.80;99.90
7576;DHT22;3829;50.798;4.358;2023-05-29T12:51:41;21.60;99.90
7576;DHT22;3829;50.798;4.358;2023-05-29T12:54:09;21.50;99.90
7576;DHT22;3829;50.798;4.358;2023-05-29T12:56:35;21.60;99.90
7576;DHT22;3829;50.798;4.358;2023-05-29T12:59:01;21.80;99.90
7576;DHT22;3829;50.798;4.358;2023-05-29T13:01:26;21.80;99.90
7576;DHT22;3829;50.798;4.358;2023-05-29T13:03:52;21.90;99.90
7576;DHT22;3829;50.798;4.358;2023-05-29T13:06:18;21.70;99.90
7576;DHT22;3829;50.798;4.358;2023-05-29T13:08:44;21.90;99.90
7576;DHT22;3829;50.798;4.358;2023-05-29T13:11:09;22.60;99.90
7576;DHT22;3829;50.798;4.358;2023-05-29T13:13:35;23.30;99.90
7576;DHT22;3829;50.798;4.358;2023-05-29T13:16:00;23.50;99.90
7576;DHT22;3829;50.798;4.358;2023-05-29T13:18:26;23.20;99.90
7576;DHT22;3829;50.798;4.358;2023-05-29T13:20:51;23.40;99.90
7576;DHT22;3829;50.798;4.358;2023-05-29T13:23:17;23.80;99.90
7576;DHT22;3829;50.798;4.358;2023-05-29T13:25:42;24.10;99.90
7576;DHT22;3829;50.798;4.358;2023-05-29T13:28:08;23.70;99.90
7576;DHT22;3829;50.798;4.358;2023-05-29T13:30:34;24.20;99.90
7576;DHT22;3829;50.798;4.358;2023-05-29T13:32:59;24.00;99.90
7576;DHT22;3829;50.798;4.358;2023-05-29T13:35:25;23.80;99.90
7576;DHT22;3829;50.798;4.358;2023-05-29T13:37:50;24.50;99.90
7576;DHT22;3829;50.798;4.358;2023-05-29T13:40:16;25.00;99.90
7576;DHT22;3829;50.798;4.358;2023-05-29T13:42:42;25.10;99.90
7576;DHT22;3829;50.798;4.358;2023-05-29T13:45:08;25.30;99.90
7576;DHT22;3829;50.798;4.358;2023-05-29T13:47:34;25.00;99.90
7576;DHT22;3829;50.798;4.358;2023-05-29T13:50:00;25.70;99.90
7576;DHT22;3829;50.798;4.358;2023-05-29T13:52:26;25.20;99.90
7576;DHT22;3829;50.798;4.358;2023-05-29T13:54:52;25.40;99.90
7576;DHT22;3829;50.798;4.358;2023-05-29T13:57:18;26.00;99.90
7576;DHT22;3829;50.798;4.358;2023-05-29T13:59:44;25.40;99.90
7576;DHT22;3829;50.798;4.358;2023-05-29T14:02:09;25.20;99.90
7576;DHT22;3829;50.798;4.358;2023-05-29T14:04:35;25.30;99.90
7576;DHT22;3829;50.798;4.358;2023-05-29T14:07:00;26.00;99.90
7576;DHT22;3829;50.798;4.358;2023-05-29T14:09:26;25.70;99.90
7576;DHT22;3829;50.798;4.358;2023-05-29T14:11:54;25.50;99.90
7576;DHT22;3829;50.798;4.358;2023-05-29T14:14:20;26.30;99.90
7576;DHT22;3829;50.798;4.358;2023-05-29T14:16:46;25.70;99.90
7576;DHT22;3829;50.798;4.358;2023-05-29T14:19:11;26.10;99.90
7576;DHT22;3829;50.798;4.358;2023-05-29T14:21:37;26.30;99.90
7576;DHT22;3829;50.798;4.358;2023-05-29T14:24:02;26.00;99.90
7576;DHT22;3829;50.798;4.358;2023-05-29T14:26:28;25.80;99.90
7576;DHT22;3829;50.798;4.358;2023-05-29T14:28:54;25.70;99.90
7576;DHT22;3829;50.798;4.358;2023-05-29T14:31:19;26.30;99.90
7576;DHT22;3829;50.798;4.358;2023-05-29T14:33:45;26.40;99.90
7576;DHT22;3829;50.798;4.358;2023-05-29T14:36:10;27.00;99.90
7576;DHT22;3829;50.798;4.358;2023-05-29T14:38:36;27.60;99.90
7576;DHT22;3829;50.798;4.358;2023-05-29T14:41:02;26.60;99.90
7576;DHT22;3829;50.798;4.358;2023-05-29T14:43:28;26.10;99.90
7576;DHT22;3829;50.798;4.358;2023-05-29T14:45:53;25.10;99.90
7576;DHT22;3829;50.798;4.358;2023-05-29T14:48:19;25.40;99.90
7576;DHT22;3829;50.798;4.358;2023-05-29T14:50:44;25.60;99.90
7576;DHT22;3829;50.798;4.358;2023-05-29T14:53:10;25.20;99.90
7576;DHT22;3829;50.798;4.358;2023-05-29T14:55:36;25.10;99.90
7576;DHT22;3829;50.798;4.358;2023-05-29T14:58:03;25.60;99.90
7576;DHT22;3829;50.798;4.358;2023-05-29T15:00:29;25.30;99.90
7576;DHT22;3829;50.798;4.358;2023-05-29T15:02:55;25.40;99.90
7576;DHT22;3829;50.798;4.358;2023-05-29T15:05:25;24.60;99.90
7576;DHT22;3829;50.798;4.358;2023-05-29T15:07:51;24.90;99.90
7576;DHT22;3829;50.798;4.358;2023-05-29T15:10:17;25.40;99.90
7576;DHT22;3829;50.798;4.358;2023-05-29T15:12:45;25.00;99.90
7576;DHT22;3829;50.798;4.358;2023-05-29T15:15:11;25.60;99.90
7576;DHT22;3829;50.798;4.358;2023-05-29T15:17:37;25.10;99.90
7576;DHT22;3829;50.798;4.358;2023-05-29T15:20:04;24.80;99.90
7576;DHT22;3829;50.798;4.358;2023-05-29T15:22:29;24.50;99.90
7576;DHT22;3829;50.798;4.358;2023-05-29T15:24:56;24.20;99.90
7576;DHT22;3829;50.798;4.358;2023-05-29T15:27:22;24.50;99.90
7576;DHT22;3829;50.798;4.358;2023-05-29T15:29:47;24.90;99.90
7576;DHT22;3829;50.798;4.358;2023-05-29T15:32:13;24.60;99.90
7576;DHT22;3829;50.798;4.358;2023-05-29T15:34:38;24.40;99.90
7576;DHT22;3829;50.798;4.358;2023-05-29T15:37:05;24.10;99.90
7576;DHT22;3829;50.798;4.358;2023-05-29T15:39:31;23.90;99.90
7576;DHT22;3829;50.798;4.358;2023-05-29T15:41:57;23.60;99.90
7576;DHT22;3829;50.798;4.358;2023-05-29T15:44:22;23.40;99.90
7576;DHT22;3829;50.798;4.358;2023-05-29T15:46:48;23.00;99.90
7576;DHT22;3829;50.798;4.358;2023-05-29T15:49:13;22.50;99.90
7576;DHT22;3829;50.798;4.358;2023-05-29T15:51:39;22.30;99.90
7576;DHT22;3829;50.798;4.358;2023-05-29T15:54:06;22.20;99.90
7576;DHT22;3829;50.798;4.358;2023-05-29T15:56:32;22.40;99.90
7576;DHT22;3829;50.798;4.358;2023-05-29T15:58:58;22.50;99.90
7576;DHT22;3829;50.798;4.358;2023-05-29T16:01:23;22.10;99.90
7576;DHT22;3829;50.798;4.358;2023-05-29T16:03:49;21.70;99.90